Time;durP1;ratioP1;P1;durP2;ratioP2;P2;SDS_P1;SDS_P2;PMS_P1;PMS_P2;Temp;Humidity;BMP_temperature;BMP_pressure;BME280_temperature;BME280_humidity;BME280_pressure;Samples;Min_cycle;Max_cycle;Signal;HPM_P1;HPM_P2
2021/12/06 00:00:09;;;;;;;11.60;7.57;;;;;;;5.37;65.89;95851.88;5071823;28;20456;-67
2021/12/06 00:02:35;;;;;;;13.77;7.97;;;;;;;5.35;66.29;95855.59;5071116;28;21184;-68
2021/12/06 00:05:01;;;;;;;8.67;7.00;;;;;;;5.58;65.53;95849.88;5072366;28;20914;-69
2021/12/06 00:07:27;;;;;;;9.33;6.93;;;;;;;5.56;65.40;95847.41;5071926;28;20428;-67
2021/12/06 00:09:52;;;;;;;9.83;7.13;;;;;;;5.30;65.99;95855.22;5071680;28;20587;-68
2021/12/06 00:12:18;;;;;;;13.07;7.53;;;;;;;5.15;66.73;95854.97;5072127;28;20208;-67
2021/12/06 00:14:44;;;;;;;14.00;7.43;;;;;;;5.12;66.37;95855.25;5071866;28;20174;-68
2021/12/06 00:17:12;;;;;;;11.30;8.53;;;;;;;5.14;66.95;95850.72;5071939;28;20420;-67
2021/12/06 00:19:39;;;;;;;12.97;8.33;;;;;;;5.19;66.25;95856.28;5071511;28;20969;-68
2021/12/06 00:22:08;;;;;;;11.20;7.80;;;;;;;5.30;66.37;95861.22;5068302;28;21013;-68
2021/12/06 00:24:34;;;;;;;10.53;8.07;;;;;;;5.02;66.79;95857.94;5057033;28;20877;-67
2021/12/06 00:27:00;;;;;;;11.23;7.30;;;;;;;5.00;68.05;95865.06;5071037;28;20512;-68
2021/12/06 00:29:26;;;;;;;9.47;7.60;;;;;;;4.84;67.90;95868.34;5070751;28;20171;-68
2021/12/06 00:31:52;;;;;;;10.33;8.00;;;;;;;4.97;67.62;95873.16;5071750;28;20488;-68
2021/12/06 00:34:19;;;;;;;10.27;7.93;;;;;;;5.14;67.39;95869.72;5073123;28;20415;-67
2021/12/06 00:37:05;;;;;;;10.10;7.47;;;;;;;5.28;66.89;95875.34;5071313;28;20931;-68
2021/12/06 00:39:31;;;;;;;9.17;7.70;;;;;;;5.35;66.67;95874.56;5071268;28;20483;-68
2021/12/06 00:41:57;;;;;;;9.60;7.43;;;;;;;5.20;66.36;95871.72;5071532;28;20962;-68
2021/12/06 00:44:23;;;;;;;10.60;7.30;;;;;;;4.83;67.42;95877.91;5071707;28;20989;-68
2021/12/06 00:46:49;;;;;;;8.83;7.13;;;;;;;4.84;68.10;95874.34;5050805;28;20430;-68
2021/12/06 00:49:15;;;;;;;9.57;6.73;;;;;;;5.08;67.36;95873.72;5069840;28;20409;-66
2021/12/06 00:51:41;;;;;;;8.53;6.73;;;;;;;5.23;66.89;95875.78;5071021;28;20218;-67
2021/12/06 00:54:09;;;;;;;9.07;6.50;;;;;;;5.21;66.75;95875.94;5065178;28;20915;-68
2021/12/06 00:56:36;;;;;;;9.53;6.63;;;;;;;5.30;66.74;95878.59;5064477;28;20182;-68
2021/12/06 00:59:03;;;;;;;9.83;8.03;;;;;;;5.48;66.03;95886.34;5069513;28;20540;-67
2021/12/06 01:01:30;;;;;;;9.50;7.20;;;;;;;5.33;66.52;95889.50;5069469;28;20463;-67
2021/12/06 01:03:56;;;;;;;10.63;7.27;;;;;;;5.16;66.51;95887.75;5071186;28;20432;-67
2021/12/06 01:06:21;;;;;;;13.20;6.93;;;;;;;5.13;66.72;95894.06;5062891;28;20825;-67
2021/12/06 01:08:47;;;;;;;10.13;6.90;;;;;;;5.21;67.04;95888.94;5071111;28;20439;-66
2021/12/06 01:11:13;;;;;;;9.90;7.40;;;;;;;5.33;66.34;95894.69;5071483;28;20178;-66
2021/12/06 01:13:39;;;;;;;12.80;7.80;;;;;;;5.04;66.49;95895.75;5063990;28;20262;-67
2021/12/06 01:16:09;;;;;;;13.20;7.23;;;;;;;4.81;67.65;95907.56;5072473;28;20416;-72
2021/12/06 01:18:36;;;;;;;10.90;7.80;;;;;;;4.68;68.26;95908.75;5055964;28;20472;-67
2021/12/06 01:21:21;;;;;;;9.80;7.40;;;;;;;4.63;68.59;95918.78;5061180;28;20428;-67
2021/12/06 01:29:07;;;;;;;11.10;8.17;;;;;;;4.55;69.26;95927.28;5071229;28;20668;-67
2021/12/06 01:39:18;;;;;;;13.30;9.57;;;;;;;4.30;69.66;95941.75;5076045;28;20230;-67
2021/12/06 01:41:58;;;;;;;18.13;10.20;;;;;;;4.53;68.86;95943.97;5057860;28;20964;-67
2021/12/06 01:44:28;;;;;;;14.00;9.83;;;;;;;4.25;69.66;95947.34;5057311;28;20519;-66
2021/12/06 01:47:00;;;;;;;16.57;10.73;;;;;;;4.49;69.31;95953.00;5068022;28;20448;-68
2021/12/06 01:49:29;;;;;;;18.57;10.87;;;;;;;4.20;70.65;95959.13;5069056;28;20424;-67
2021/12/06 01:52:00;;;;;;;17.03;11.07;;;;;;;4.57;69.36;95955.66;5070475;28;20555;-67
2021/12/06 01:54:26;;;;;;;16.33;11.13;;;;;;;4.48;69.99;95966.91;5059251;28;20429;-68
2021/12/06 01:56:52;;;;;;;15.47;10.37;;;;;;;4.72;69.00;95961.19;5067021;28;20424;-67
2021/12/06 01:59:19;;;;;;;14.40;10.33;;;;;;;4.76;69.20;95955.56;5070529;28;20206;-67
2021/12/06 02:01:46;;;;;;;13.60;9.90;;;;;;;4.72;68.78;95956.81;5061823;28;20791;-67
2021/12/06 02:04:12;;;;;;;16.30;10.27;;;;;;;4.92;68.13;95952.31;5062679;28;20442;-67
2021/12/06 02:06:39;;;;;;;16.10;10.50;;;;;;;5.08;67.79;95954.25;5070193;28;20421;-68
2021/12/06 02:09:08;;;;;;;16.00;10.73;;;;;;;5.03;68.29;95951.28;5062593;28;20504;-67
2021/12/06 02:11:36;;;;;;;12.77;10.07;;;;;;;4.94;67.76;95954.75;5070088;28;21152;-67
2021/12/06 02:16:41;;;;;;;14.30;11.00;;;;;;;5.19;67.48;95960.16;5073744;28;20435;-68
2021/12/06 02:19:08;;;;;;;13.47;10.10;;;;;;;4.97;67.52;95971.84;5058971;28;20452;-68
2021/12/06 02:21:39;;;;;;;16.43;10.73;;;;;;;4.88;68.17;95973.53;5071037;28;20437;-68
2021/12/06 02:24:08;;;;;;;15.73;10.77;;;;;;;4.74;67.87;95972.22;5053336;28;20467;-69
2021/12/06 02:26:36;;;;;;;15.30;10.90;;;;;;;4.69;68.13;95988.25;5066595;28;20413;-69
2021/12/06 02:29:02;;;;;;;15.00;10.80;;;;;;;4.68;68.93;95988.41;5057378;28;20416;-67
2021/12/06 02:31:27;;;;;;;20.83;11.70;;;;;;;4.69;69.15;95993.44;5072366;28;20788;-68
2021/12/06 02:33:53;;;;;;;18.70;12.20;;;;;;;4.45;70.06;95999.97;5073322;28;20433;-66
2021/12/06 02:36:21;;;;;;;15.93;12.23;;;;;;;4.39;69.63;95992.78;5073198;28;20653;-67
2021/12/06 02:38:47;;;;;;;17.03;12.50;;;;;;;4.72;69.82;95990.56;5071758;28;20457;-67
2021/12/06 02:41:15;;;;;;;20.43;13.00;;;;;;;4.57;69.45;95992.00;5065445;28;20478;-66
2021/12/06 02:43:41;;;;;;;18.00;12.43;;;;;;;4.75;68.95;95992.88;5073180;28;20500;-67
2021/12/06 02:46:08;;;;;;;20.43;12.97;;;;;;;4.66;68.67;95990.31;5072217;28;20430;-67
2021/12/06 02:48:34;;;;;;;18.30;12.20;;;;;;;4.64;69.29;95990.47;5070509;28;20437;-68
2021/12/06 02:51:04;;;;;;;23.23;12.00;;;;;;;4.30;70.16;95991.84;5056913;28;20424;-67
2021/12/06 02:53:32;;;;;;;19.50;11.53;;;;;;;4.41;69.91;95993.44;5073099;28;20436;-68
2021/12/06 02:56:04;;;;;;;17.37;13.33;;;;;;;4.40;69.93;95994.41;5058220;28;20428;-68
2021/12/06 03:01:14;;;;;;;23.57;13.90;;;;;;;4.36;70.77;95993.06;5053461;28;20735;-67
2021/12/06 03:03:40;;;;;;;22.57;15.50;;;;;;;4.28;70.48;96000.75;5070071;28;20413;-68
2021/12/06 03:06:08;;;;;;;27.50;15.43;;;;;;;4.27;71.08;95996.50;5073158;28;20420;-68
2021/12/06 03:08:40;;;;;;;22.80;15.90;;;;;;;4.59;69.82;96003.88;5072826;28;20906;-68
2021/12/06 03:11:14;;;;;;;27.00;16.83;;;;;;;4.75;69.36;96005.84;5057989;28;20428;-68
2021/12/06 03:13:40;;;;;;;28.27;17.90;;;;;;;4.84;69.30;96006.75;5072351;28;20420;-68
2021/12/06 03:16:06;;;;;;;25.57;16.70;;;;;;;5.04;69.34;96002.22;5072979;28;20438;-68
2021/12/06 03:18:32;;;;;;;24.47;17.33;;;;;;;5.12;68.84;96009.28;5072749;28;20203;-68
2021/12/06 03:20:58;;;;;;;24.97;17.40;;;;;;;5.22;68.69;96007.47;5064404;28;20784;-68
2021/12/06 03:23:24;;;;;;;26.30;16.93;;;;;;;5.01;68.78;96005.16;5069745;28;20244;-69
2021/12/06 03:25:49;;;;;;;24.57;17.10;;;;;;;4.94;68.97;96011.06;5058402;28;20416;-67
2021/12/06 03:28:15;;;;;;;24.67;18.00;;;;;;;4.89;69.25;96014.09;5072291;28;21003;-65
2021/12/06 03:30:41;;;;;;;23.40;17.30;;;;;;;4.37;70.93;96018.03;5072251;28;20262;-68
2021/12/06 03:33:07;;;;;;;29.40;17.53;;;;;;;4.36;70.98;96023.34;5072597;28;20755;-67
2021/12/06 03:35:32;;;;;;;26.17;19.90;;;;;;;4.37;71.04;96023.22;5072711;28;20553;-68
2021/12/06 03:37:58;;;;;;;24.83;17.87;;;;;;;4.34;71.53;96027.88;5072301;28;20622;-68
2021/12/06 03:40:24;;;;;;;28.47;18.33;;;;;;;4.22;71.73;96035.81;5062442;28;20461;-67
2021/12/06 03:42:50;;;;;;;28.93;18.30;;;;;;;4.21;72.33;96036.81;5070519;28;20202;-68
2021/12/06 03:45:16;;;;;;;23.87;18.30;;;;;;;4.61;71.54;96040.06;5072349;28;20220;-68
2021/12/06 03:47:41;;;;;;;25.27;17.60;;;;;;;4.71;70.32;96040.03;5069611;28;20412;-67
2021/12/06 03:50:08;;;;;;;26.23;16.70;;;;;;;4.66;70.36;96045.66;5063576;28;20536;-67
2021/12/06 03:52:34;;;;;;;24.43;17.23;;;;;;;4.95;69.95;96044.66;5072166;28;20213;-69
2021/12/06 03:55:01;;;;;;;27.80;17.87;;;;;;;4.88;69.22;96046.22;5058253;28;20420;-68
2021/12/06 03:57:27;;;;;;;21.77;16.30;;;;;;;4.54;70.44;96054.56;5072005;28;20413;-67
2021/12/06 03:59:53;;;;;;;25.00;16.97;;;;;;;4.61;69.85;96056.44;5061702;28;20535;-67
2021/12/06 04:02:22;;;;;;;23.90;16.47;;;;;;;4.64;69.82;96059.72;5070527;28;20328;-66
2021/12/06 04:04:48;;;;;;;25.87;16.60;;;;;;;4.66;69.96;96063.00;5050331;28;20441;-67
2021/12/06 04:07:14;;;;;;;25.40;16.10;;;;;;;4.54;70.71;96059.75;5065877;28;20417;-67
2021/12/06 04:09:40;;;;;;;24.57;16.60;;;;;;;4.28;71.14;96066.41;5071227;28;20425;-67
2021/12/06 04:12:08;;;;;;;21.40;16.07;;;;;;;4.70;70.20;96065.16;5058257;28;20466;-68
2021/12/06 04:14:34;;;;;;;28.33;17.33;;;;;;;4.86;70.02;96068.91;5064200;28;20178;-68
2021/12/06 04:17:00;;;;;;;24.73;16.63;;;;;;;4.79;69.30;96076.47;5050135;28;20432;-65
2021/12/06 04:19:25;;;;;;;22.47;16.77;;;;;;;4.84;68.97;96076.84;5051149;28;20450;-66
2021/12/06 04:21:51;;;;;;;22.57;16.73;;;;;;;4.86;68.91;96081.91;5056363;28;20234;-67
2021/12/06 04:24:17;;;;;;;21.97;16.20;;;;;;;5.01;69.03;96083.06;5057255;28;20253;-67
2021/12/06 04:26:44;;;;;;;22.47;15.70;;;;;;;5.14;69.23;96082.69;5058061;28;20552;-67
2021/12/06 04:29:11;;;;;;;23.23;16.27;;;;;;;5.31;68.35;96088.88;5050851;28;20426;-68
2021/12/06 04:31:40;;;;;;;24.20;16.43;;;;;;;5.38;68.72;96089.94;5050934;28;20440;-67
2021/12/06 04:34:06;;;;;;;23.40;16.50;;;;;;;5.32;68.06;96090.50;5051041;28;20796;-66
2021/12/06 04:36:32;;;;;;;21.90;16.87;;;;;;;5.35;68.68;96098.03;5050070;28;20449;-67
2021/12/06 04:38:58;;;;;;;23.10;17.47;;;;;;;5.30;68.44;96107.22;5050415;28;20572;-66
2021/12/06 04:41:24;;;;;;;29.27;18.90;;;;;;;5.17;68.92;96099.75;5050774;28;20290;-67
2021/12/06 04:43:51;;;;;;;29.67;18.27;;;;;;;5.29;68.73;96100.38;5047434;28;20203;-67
2021/12/06 04:46:18;;;;;;;30.93;19.30;;;;;;;5.17;68.93;96102.34;5050971;28;20767;-67
2021/12/06 04:48:45;;;;;;;31.37;19.23;;;;;;;5.27;68.62;96110.94;5049385;28;20516;-67
2021/12/06 04:51:12;;;;;;;25.00;18.80;;;;;;;4.72;69.78;96112.56;5050530;28;20722;-67
2021/12/06 04:53:40;;;;;;;27.20;18.53;;;;;;;5.00;69.56;96122.13;5050884;28;20494;-67
2021/12/06 04:56:19;;;;;;;28.87;19.33;;;;;;;5.02;69.38;96121.03;5054682;28;20425;-68
2021/12/06 04:59:01;;;;;;;27.90;18.83;;;;;;;5.07;69.18;96118.81;5051038;28;20457;-67
2021/12/06 05:01:33;;;;;;;26.57;18.73;;;;;;;5.21;69.02;96124.50;5050924;28;20429;-67
2021/12/06 05:04:04;;;;;;;25.07;17.73;;;;;;;4.89;69.17;96125.75;5050579;28;20421;-67
2021/12/06 05:06:33;;;;;;;26.90;18.90;;;;;;;4.87;70.31;96138.06;5050767;28;20425;-67
2021/12/06 05:09:06;;;;;;;29.97;18.73;;;;;;;4.96;69.93;96132.00;5053217;28;20421;-68
2021/12/06 05:11:33;;;;;;;29.93;19.20;;;;;;;4.81;69.75;96136.00;5070856;28;20433;-68
2021/12/06 05:14:02;;;;;;;27.17;19.03;;;;;;;5.04;69.05;96134.69;5057103;28;20861;-69
2021/12/06 05:16:33;;;;;;;29.10;19.50;;;;;;;4.85;69.94;96145.97;5057868;28;20456;-67
2021/12/06 05:19:00;;;;;;;25.53;18.67;;;;;;;5.17;68.92;96149.94;5050410;28;20483;-68
2021/12/06 05:21:27;;;;;;;30.63;18.23;;;;;;;5.31;68.95;96155.63;5052537;28;20783;-68
2021/12/06 05:23:53;;;;;;;29.97;20.23;;;;;;;4.98;69.18;96156.03;5051490;28;20524;-66
2021/12/06 05:26:20;;;;;;;27.93;19.47;;;;;;;5.15;68.72;96166.66;5050523;28;20919;-67
2021/12/06 05:28:53;;;;;;;28.37;19.77;;;;;;;4.92;69.49;96172.19;5050161;28;20756;-66
2021/12/06 05:31:23;;;;;;;31.00;19.43;;;;;;;4.65;70.37;96178.97;5050328;28;20461;-68
2021/12/06 05:33:59;;;;;;;28.97;19.63;;;;;;;4.88;69.60;96170.84;5050526;28;20418;-69
2021/12/06 05:36:28;;;;;;;27.17;17.90;;;;;;;4.83;70.39;96180.81;5050268;28;20433;-67
2021/12/06 05:38:57;;;;;;;24.03;17.97;;;;;;;4.79;70.57;96182.09;5058309;28;20828;-68
2021/12/06 05:41:24;;;;;;;29.60;18.87;;;;;;;5.05;69.67;96177.88;5050198;28;20870;-68
2021/12/06 05:43:54;;;;;;;24.37;16.70;;;;;;;5.16;69.06;96178.69;5051268;28;20984;-68
2021/12/06 05:46:27;;;;;;;25.43;17.23;;;;;;;4.66;69.20;96193.59;5045795;28;20731;-68
2021/12/06 05:48:54;;;;;;;23.17;16.60;;;;;;;4.89;69.45;96203.66;5056543;28;20812;-67
2021/12/06 05:51:20;;;;;;;24.37;17.37;;;;;;;4.57;70.75;96208.22;5060264;28;20421;-66
2021/12/06 05:53:47;;;;;;;23.17;16.87;;;;;;;4.61;70.71;96217.34;5057013;28;20449;-66
2021/12/06 05:56:14;;;;;;;25.77;15.13;;;;;;;4.71;70.22;96217.34;5054565;28;20487;-70
2021/12/06 05:58:41;;;;;;;22.30;16.63;;;;;;;4.28;71.38;96219.44;5053001;28;20952;-68
2021/12/06 06:01:10;;;;;;;23.50;16.70;;;;;;;3.84;72.82;96222.41;5053660;28;20992;-68
2021/12/06 06:03:37;;;;;;;26.67;16.17;;;;;;;3.92;73.85;96231.28;5053739;28;20760;-67
2021/12/06 06:06:03;;;;;;;28.67;17.57;;;;;;;4.21;72.47;96230.50;5054191;28;20491;-67
2021/12/06 06:08:30;;;;;;;30.50;18.50;;;;;;;4.00;73.86;96227.06;5052658;28;20425;-67
2021/12/06 06:10:57;;;;;;;28.33;17.40;;;;;;;3.88;73.25;96229.94;5062097;28;20461;-69
2021/12/06 06:13:24;;;;;;;25.63;17.03;;;;;;;4.18;73.11;96238.53;5047888;28;20456;-66
2021/12/06 06:15:51;;;;;;;29.30;17.57;;;;;;;4.21;72.26;96244.28;5049222;28;20465;-65
2021/12/06 06:18:19;;;;;;;31.73;19.83;;;;;;;4.46;72.01;96242.91;5062155;28;20428;-68
2021/12/06 06:20:50;;;;;;;30.00;19.73;;;;;;;4.33;72.04;96244.97;5056436;28;20520;-68
2021/12/06 06:23:17;;;;;;;33.30;20.90;;;;;;;4.43;72.04;96256.16;5068680;28;20535;-67
2021/12/06 06:25:44;;;;;;;30.20;20.10;;;;;;;4.65;71.78;96253.41;5074236;28;20424;-67
2021/12/06 06:28:16;;;;;;;30.07;20.13;;;;;;;4.48;71.81;96265.31;5073815;28;20452;-68
2021/12/06 06:30:43;;;;;;;31.00;18.90;;;;;;;4.45;72.20;96263.81;5076608;28;21081;-67
2021/12/06 06:33:10;;;;;;;27.97;18.20;;;;;;;4.39;72.43;96265.19;5077842;28;20440;-68
2021/12/06 06:35:40;;;;;;;35.13;21.03;;;;;;;4.24;72.58;96266.53;5077965;28;20420;-65
2021/12/06 06:38:22;;;;;;;33.77;18.00;;;;;;;3.94;73.92;96265.66;5069571;28;20440;-67
2021/12/06 06:40:54;;;;;;;32.90;19.30;;;;;;;3.98;73.28;96273.03;5053950;28;20442;-68
2021/12/06 06:43:21;;;;;;;34.73;19.70;;;;;;;4.23;73.27;96280.47;5073686;28;20874;-68
2021/12/06 06:45:48;;;;;;;32.73;19.97;;;;;;;4.33;72.88;96277.88;5073353;28;20478;-67
2021/12/06 06:48:15;;;;;;;36.30;20.87;;;;;;;4.40;72.55;96285.00;5065592;28;20425;-67
2021/12/06 06:50:42;;;;;;;34.83;20.00;;;;;;;4.37;72.23;96287.84;5070412;28;20491;-69
2021/12/06 06:53:09;;;;;;;28.37;18.97;;;;;;;4.58;72.08;96292.91;5065031;28;20444;-68
2021/12/06 06:55:35;;;;;;;30.07;19.20;;;;;;;4.37;72.69;96295.63;5073171;28;20515;-68
2021/12/06 06:58:03;;;;;;;29.00;19.77;;;;;;;4.00;74.09;96298.84;5056534;28;20412;-67
2021/12/06 07:00:36;;;;;;;28.13;19.40;;;;;;;4.26;73.18;96311.31;5070508;28;20475;-68
2021/12/06 07:03:11;;;;;;;31.80;21.13;;;;;;;4.40;72.11;96312.69;5072081;28;20467;-67
2021/12/06 07:05:37;;;;;;;31.50;19.53;;;;;;;4.45;72.17;96316.53;5049636;28;20854;-67
2021/12/06 07:08:04;;;;;;;35.00;19.40;;;;;;;4.30;72.59;96320.47;5073541;28;20413;-69
2021/12/06 07:10:37;;;;;;;34.40;20.93;;;;;;;4.69;71.84;96324.88;5072012;28;20479;-67
2021/12/06 07:13:08;;;;;;;28.27;18.50;;;;;;;4.86;71.07;96328.53;5073448;28;20433;-68
2021/12/06 07:15:36;;;;;;;35.83;20.83;;;;;;;4.85;70.78;96322.50;5072069;28;20424;-66
2021/12/06 07:18:04;;;;;;;31.17;20.07;;;;;;;4.86;70.71;96318.16;5072664;28;20523;-67
2021/12/06 07:20:32;;;;;;;33.53;21.20;;;;;;;4.30;72.38;96328.25;5065661;28;20813;-68
2021/12/06 07:23:03;;;;;;;32.43;18.60;;;;;;;4.65;71.33;96334.72;5073106;28;20930;-67
2021/12/06 07:25:30;;;;;;;30.47;18.83;;;;;;;4.08;73.13;96332.72;5071617;28;20432;-67
2021/12/06 07:27:58;;;;;;;38.43;21.80;;;;;;;4.35;72.69;96335.66;5072945;28;20421;-66
2021/12/06 07:30:25;;;;;;;36.53;21.50;;;;;;;4.40;72.74;96344.66;5072673;28;20417;-69
2021/12/06 07:32:54;;;;;;;33.07;19.70;;;;;;;4.43;72.57;96344.38;5070600;28;20472;-68
2021/12/06 07:35:20;;;;;;;40.80;22.30;;;;;;;4.15;73.40;96346.81;5068383;28;20417;-69
2021/12/06 07:37:48;;;;;;;34.97;22.07;;;;;;;4.18;73.05;96350.06;5072280;28;20437;-68
2021/12/06 07:40:16;;;;;;;39.80;20.03;;;;;;;4.57;72.80;96355.31;5067591;28;20468;-66
2021/12/06 07:42:44;;;;;;;33.83;20.90;;;;;;;4.57;72.18;96355.31;5073708;28;20494;-67
2021/12/06 07:45:12;;;;;;;38.13;21.67;;;;;;;4.40;73.05;96359.41;5072149;28;20425;-68
2021/12/06 07:47:42;;;;;;;31.20;19.90;;;;;;;4.67;71.82;96366.50;5070532;28;20499;-67
2021/12/06 07:50:12;;;;;;;32.50;19.63;;;;;;;4.55;72.48;96371.03;5058593;28;20409;-67
2021/12/06 07:52:41;;;;;;;32.53;20.47;;;;;;;4.57;71.42;96370.88;5065520;28;20441;-67
2021/12/06 07:55:11;;;;;;;33.40;19.30;;;;;;;4.95;71.81;96374.44;5051593;28;20795;-65
2021/12/06 07:57:38;;;;;;;31.23;18.00;;;;;;;4.64;71.75;96372.00;5036417;28;20984;-65
2021/12/06 08:00:06;;;;;;;32.23;19.27;;;;;;;4.76;71.61;96370.06;5037840;28;20452;-65
2021/12/06 08:02:33;;;;;;;32.70;19.97;;;;;;;4.85;70.54;96373.63;5068525;28;20855;-67
2021/12/06 08:05:29;;;;;;;32.63;18.97;;;;;;;4.86;71.36;96375.28;5061503;28;20434;-67
2021/12/06 08:07:47;;;;;;;31.77;18.80;;;;;;;5.13;70.45;96379.75;5067154;28;20429;-66
2021/12/06 08:10:15;;;;;;;33.87;18.77;;;;;;;5.12;69.57;96374.72;5058439;28;20463;-66
2021/12/06 08:12:42;;;;;;;34.80;19.70;;;;;;;4.97;70.25;96376.94;5044231;28;20989;-68
2021/12/06 08:15:09;;;;;;;30.83;18.50;;;;;;;5.06;69.24;96382.09;5073194;28;20424;-67
2021/12/06 08:17:36;;;;;;;31.80;18.10;;;;;;;5.07;70.02;96381.13;5073044;28;20441;-66
2021/12/06 08:20:08;;;;;;;28.87;17.80;;;;;;;5.27;69.27;96375.94;5054745;28;20961;-68
2021/12/06 08:22:35;;;;;;;26.53;16.93;;;;;;;5.36;69.40;96382.06;5069865;28;20455;-67
2021/12/06 08:25:04;;;;;;;26.43;17.20;;;;;;;5.46;69.49;96376.84;5059851;28;20426;-66
2021/12/06 08:27:31;;;;;;;26.57;17.20;;;;;;;5.42;68.53;96388.50;5057425;28;20425;-67
2021/12/06 08:29:58;;;;;;;28.97;18.37;;;;;;;5.01;69.86;96399.88;5049744;28;20409;-67
2021/12/06 08:32:25;;;;;;;26.27;17.90;;;;;;;4.90;70.78;96389.63;5071628;28;20440;-66
2021/12/06 08:34:51;;;;;;;27.57;16.47;;;;;;;4.51;71.80;96387.81;5069084;28;20428;-67
2021/12/06 08:37:17;;;;;;;21.63;14.50;;;;;;;4.30;72.78;96400.88;5065428;28;20543;-67
2021/12/06 08:39:43;;;;;;;25.37;16.07;;;;;;;4.46;72.67;96401.19;5070808;28;20642;-68
2021/12/06 08:42:09;;;;;;;33.47;19.50;;;;;;;4.34;73.70;96401.47;5070162;28;20281;-67
2021/12/06 08:44:36;;;;;;;39.97;18.40;;;;;;;4.04;74.46;96414.31;5071140;28;20230;-67
2021/12/06 08:47:03;;;;;;;37.10;18.30;;;;;;;4.05;74.11;96415.94;5070703;28;20459;-67
2021/12/06 08:49:30;;;;;;;47.10;22.23;;;;;;;4.53;72.86;96421.44;5070967;28;20185;-68
2021/12/06 08:51:57;;;;;;;43.70;20.00;;;;;;;4.49;73.14;96420.84;5062989;28;20942;-66
2021/12/06 08:54:26;;;;;;;28.80;16.07;;;;;;;4.36;73.18;96415.94;5070350;28;20424;-68
2021/12/06 08:56:54;;;;;;;32.30;17.83;;;;;;;4.40;72.77;96413.88;5070896;28;20425;-67
2021/12/06 08:59:20;;;;;;;47.63;21.00;;;;;;;4.75;72.79;96413.41;5038121;28;20852;-68
2021/12/06 09:01:46;;;;;;;46.50;20.80;;;;;;;4.85;71.42;96410.00;5058687;28;20441;-67
2021/12/06 09:04:12;;;;;;;43.67;19.10;;;;;;;5.08;71.22;96413.94;5070991;28;20189;-67
2021/12/06 09:06:46;;;;;;;50.17;21.30;;;;;;;4.89;71.56;96416.56;5069209;28;20520;-66
2021/12/06 09:09:12;;;;;;;31.27;17.47;;;;;;;4.95;71.66;96410.81;5043364;28;20433;-67
2021/12/06 09:11:41;;;;;;;30.87;17.90;;;;;;;5.10;70.74;96413.84;5049093;28;20421;-66
2021/12/06 09:14:08;;;;;;;29.47;17.13;;;;;;;4.77;71.73;96413.25;5069746;28;20466;-67
2021/12/06 09:16:36;;;;;;;35.30;18.53;;;;;;;4.85;71.42;96415.97;5070872;28;20424;-66
2021/12/06 09:19:04;;;;;;;33.10;18.50;;;;;;;4.86;72.26;96422.00;5070869;28;20460;-66
2021/12/06 09:21:30;;;;;;;33.07;19.47;;;;;;;4.60;72.69;96420.75;5067530;28;20462;-68
2021/12/06 09:23:58;;;;;;;35.60;18.00;;;;;;;5.13;70.62;96423.13;5073646;28;20460;-66
2021/12/06 09:26:24;;;;;;;30.40;18.17;;;;;;;4.90;70.86;96429.41;5073564;28;20436;-67
2021/12/06 09:28:49;;;;;;;30.00;18.27;;;;;;;5.01;71.03;96433.66;5058935;28;20777;-67
2021/12/06 09:31:18;;;;;;;25.13;16.40;;;;;;;5.14;71.10;96430.75;5075232;28;20429;-69
2021/12/06 09:33:43;;;;;;;30.00;16.90;;;;;;;5.30;70.32;96435.41;5074751;28;20198;-66
2021/12/06 09:36:12;;;;;;;27.37;16.67;;;;;;;5.43;69.37;96434.28;5075002;28;20428;-67
2021/12/06 09:38:39;;;;;;;20.40;12.23;;;;;;;5.36;68.66;96441.81;5073406;28;20228;-68
2021/12/06 09:41:11;;;;;;;22.37;14.70;;;;;;;5.50;68.71;96444.00;5075060;28;20879;-66
2021/12/06 09:43:39;;;;;;;25.70;13.30;;;;;;;5.07;70.03;96442.66;5061203;28;20457;-67
2021/12/06 09:46:11;;;;;;;24.70;13.67;;;;;;;5.33;68.80;96442.94;5075004;28;20428;-66
2021/12/06 09:48:39;;;;;;;27.90;15.13;;;;;;;5.38;68.78;96440.75;5070277;28;20425;-68
2021/12/06 09:51:09;;;;;;;27.70;15.50;;;;;;;5.53;68.75;96455.91;5073851;28;20427;-68
2021/12/06 09:53:37;;;;;;;26.63;13.47;;;;;;;5.32;68.88;96449.06;5059809;28;20971;-67
2021/12/06 09:56:09;;;;;;;25.73;12.40;;;;;;;5.59;67.64;96455.34;5060080;28;20429;-69
2021/12/06 09:58:36;;;;;;;23.30;13.07;;;;;;;5.53;67.42;96463.72;5043449;28;20836;-67
2021/12/06 10:01:15;;;;;;;25.00;13.50;;;;;;;5.81;67.36;96458.56;5065812;28;20425;-68
2021/12/06 10:03:44;;;;;;;28.27;14.00;;;;;;;5.95;65.90;96450.34;5070756;28;20444;-67
2021/12/06 10:06:10;;;;;;;24.27;12.97;;;;;;;5.69;67.12;96453.53;5063186;28;20452;-67
2021/12/06 10:08:38;;;;;;;26.60;13.60;;;;;;;5.90;66.24;96451.72;5066736;28;20413;-68
2021/12/06 10:11:06;;;;;;;25.20;14.27;;;;;;;5.71;67.48;96450.81;5068038;28;20417;-67
2021/12/06 10:13:32;;;;;;;25.10;13.60;;;;;;;6.22;65.97;96435.75;5073671;28;20979;-68
2021/12/06 10:15:58;;;;;;;24.57;13.67;;;;;;;6.09;65.19;96430.06;5070913;28;20769;-68
2021/12/06 10:18:24;;;;;;;25.33;13.40;;;;;;;6.01;65.72;96440.38;5073754;28;20485;-66
2021/12/06 10:20:50;;;;;;;21.67;12.17;;;;;;;5.80;66.04;96430.94;5072154;28;20221;-68
2021/12/06 10:23:17;;;;;;;26.10;12.50;;;;;;;6.10;65.84;96431.69;5070810;28;20440;-67
2021/12/06 10:25:46;;;;;;;22.97;14.17;;;;;;;6.08;65.84;96428.41;5066115;28;20182;-67
2021/12/06 10:28:14;;;;;;;26.47;15.00;;;;;;;5.86;66.67;96422.59;5074214;28;20512;-67
2021/12/06 10:30:43;;;;;;;24.37;13.10;;;;;;;6.01;66.36;96419.56;5074772;28;20966;-68
2021/12/06 10:33:16;;;;;;;19.87;12.27;;;;;;;6.38;65.05;96403.88;5060220;28;20453;-68
2021/12/06 10:35:47;;;;;;;23.27;12.47;;;;;;;6.49;64.44;96410.69;5072616;28;20444;-68
2021/12/06 10:38:33;;;;;;;27.27;13.80;;;;;;;5.85;65.03;96413.13;5077718;28;20451;-69
2021/12/06 10:41:13;;;;;;;19.50;11.10;;;;;;;6.00;64.91;96418.72;5063371;28;20802;-68
2021/12/06 10:43:40;;;;;;;11.40;7.40;;;;;;;6.59;62.29;96410.66;5080122;28;21019;-66
2021/12/06 10:46:07;;;;;;;12.67;8.27;;;;;;;7.02;60.90;96406.47;5080630;28;20916;-67
2021/12/06 10:48:38;;;;;;;25.00;12.77;;;;;;;6.97;60.55;96393.09;5059427;28;20443;-68
2021/12/06 10:51:13;;;;;;;11.73;8.13;;;;;;;7.26;58.78;96392.00;5062561;28;20877;-69
2021/12/06 10:53:44;;;;;;;11.53;7.67;;;;;;;7.37;58.93;96383.16;5064446;28;20479;-67
2021/12/06 10:56:25;;;;;;;14.20;8.30;;;;;;;7.77;58.33;96384.38;5063158;28;20908;-68
2021/12/06 10:58:53;;;;;;;12.00;8.00;;;;;;;7.66;57.62;96387.25;5068630;28;20471;-68
2021/12/06 11:01:33;;;;;;;8.80;6.80;;;;;;;7.81;56.87;96390.91;5079896;28;20610;-67
2021/12/06 11:04:02;;;;;;;10.60;7.33;;;;;;;7.64;57.33;96391.81;5070062;28;20510;-67
2021/12/06 11:06:31;;;;;;;10.30;6.97;;;;;;;7.56;57.75;96394.38;5049208;28;20430;-68
2021/12/06 11:09:01;;;;;;;9.43;6.57;;;;;;;6.63;59.93;96401.56;5053441;28;20421;-68
2021/12/06 11:11:30;;;;;;;10.57;6.90;;;;;;;6.40;60.80;96393.34;5072937;28;21034;-66
2021/12/06 11:14:00;;;;;;;15.73;7.43;;;;;;;6.75;60.62;96394.34;5077153;28;20472;-67
2021/12/06 11:16:28;;;;;;;14.53;8.40;;;;;;;6.79;60.86;96389.66;5076378;28;20520;-67
2021/12/06 11:18:56;;;;;;;10.70;7.03;;;;;;;7.01;60.44;96388.41;5080798;28;20463;-67
2021/12/06 11:21:35;;;;;;;15.70;9.90;;;;;;;7.01;60.70;96393.63;5065290;28;20435;-67
2021/12/06 11:24:11;;;;;;;10.83;7.20;;;;;;;6.88;60.00;96379.19;5065319;28;20503;-67
2021/12/06 11:26:51;;;;;;;13.67;8.13;;;;;;;7.64;58.87;96378.75;5073010;28;20533;-68
2021/12/06 11:29:33;;;;;;;13.00;6.90;;;;;;;7.54;57.53;96381.47;5072589;28;20406;-69
2021/12/06 11:32:01;;;;;;;10.50;6.23;;;;;;;7.78;56.96;96379.97;5071624;28;20432;-67
2021/12/06 11:34:32;;;;;;;9.37;6.40;;;;;;;7.39;57.48;96386.41;5070903;28;20512;-67
2021/12/06 11:36:58;;;;;;;9.80;6.87;;;;;;;7.55;57.18;96377.09;5054729;28;20443;-67
2021/12/06 11:39:25;;;;;;;8.73;6.93;;;;;;;7.73;57.01;96379.63;5071208;28;20460;-67
2021/12/06 11:41:56;;;;;;;8.60;6.57;;;;;;;7.48;57.54;96379.47;5064627;28;20213;-67
2021/12/06 11:44:31;;;;;;;9.83;7.00;;;;;;;6.93;59.59;96385.75;5072297;28;20424;-67
2021/12/06 11:47:06;;;;;;;11.90;6.83;;;;;;;7.02;58.79;96380.44;5052595;28;20476;-68
2021/12/06 11:49:36;;;;;;;8.77;5.57;;;;;;;7.30;57.43;96376.91;5054312;28;20424;-66